Time;durP1;ratioP1;P1;durP2;ratioP2;P2;SDS_P1;SDS_P2;PMS_P1;PMS_P2;Temp;Humidity;BMP_temperature;BMP_pressure;BME280_temperature;BME280_humidity;BME280_pressure;Samples;Min_cycle;Max_cycle;Signal;HPM_P1;HPM_P2
2022/11/06 00:01:54;;;;;;;0.20;0.10;;;12.80;99.90;;;;;;25651923;23;20377;-71
2022/11/06 00:11:59;;;;;;;0.20;0.10;;;11.90;99.90;;;;;;25648769;23;20372;-71
2022/11/06 00:22:03;;;;;;;0.20;0.00;;;11.90;99.90;;;;;;25652740;23;20371;-70
2022/11/06 00:32:09;;;;;;;0.20;0.00;;;11.80;99.90;;;;;;25629993;23;20364;-71
2022/11/06 00:42:12;;;;;;;0.20;0.00;;;11.80;99.90;;;;;;25658952;23;21451;-70
2022/11/06 00:52:21;;;;;;;0.20;0.10;;;11.70;99.90;;;;;;25630149;23;20391;-71
2022/11/06 01:02:24;;;;;;;0.20;0.00;;;11.90;99.90;;;;;;25661266;23;20450;-71
2022/11/06 01:12:31;;;;;;;0.20;0.00;;;12.10;99.90;;;;;;25661876;23;20371;-71
2022/11/06 01:22:34;;;;;;;0.20;0.10;;;12.20;99.90;;;;;;25661902;23;20367;-72
2022/11/06 01:32:40;;;;;;;0.20;0.10;;;12.20;99.90;;;;;;25636113;23;20391;-72
2022/11/06 01:42:44;;;;;;;0.20;0.00;;;11.90;99.90;;;;;;25635103;23;20388;-71
2022/11/06 01:52:51;;;;;;;0.20;0.00;;;11.60;99.90;;;;;;25635822;23;20370;-72
2022/11/06 02:02:55;;;;;;;0.20;0.00;;;11.20;99.90;;;;;;25658939;23;20383;-70
2022/11/06 02:13:14;;;;;;;0.20;0.00;;;11.00;99.90;;;;;;25631740;23;20371;-71
2022/11/06 02:23:36;;;;;;;0.20;0.00;;;11.10;99.90;;;;;;25660202;23;20387;-71
2022/11/06 02:33:47;;;;;;;0.20;0.00;;;11.00;99.90;;;;;;25658236;23;20360;-70
2022/11/06 02:43:55;;;;;;;0.20;0.03;;;10.90;99.90;;;;;;25657329;23;20376;-71
2022/11/06 02:54:04;;;;;;;0.20;0.00;;;10.90;99.90;;;;;;25629620;23;20356;-70
2022/11/06 03:04:15;;;;;;;0.20;0.10;;;10.50;99.90;;;;;;25632160;23;20411;-70
2022/11/06 03:14:27;;;;;;;0.20;0.00;;;10.60;99.90;;;;;;25631202;23;20374;-70
2022/11/06 03:24:39;;;;;;;0.20;0.00;;;10.50;99.90;;;;;;25628817;23;20391;-71
2022/11/06 10:19:50;;;;;;;0.20;0.00;;;19.90;99.90;;;;;;25526053;23;20389;-72
2022/11/06 10:30:06;;;;;;;0.20;0.00;;;20.80;99.90;;;;;;25532553;23;20373;-73
2022/11/06 10:40:18;;;;;;;0.20;0.00;;;21.90;99.90;;;;;;25530452;23;20358;-72
2022/11/06 10:50:37;;;;;;;0.20;0.00;;;22.40;99.90;;;;;;25530175;23;20478;-71
2022/11/06 11:00:42;;;;;;;0.20;0.00;;;22.00;99.90;;;;;;25529301;23;20373;-71
2022/11/06 11:10:46;;;;;;;0.20;0.10;;;22.00;99.90;;;;;;25525826;23;20373;-72
2022/11/06 11:21:23;;;;;;;0.20;0.00;;;23.10;99.90;;;;;;25525727;23;20451;-72
2022/11/06 11:31:30;;;;;;;0.20;0.00;;;22.70;99.90;;;;;;25498928;23;20377;-71
2022/11/06 11:41:36;;;;;;;0.20;0.00;;;22.50;99.90;;;;;;25502910;23;20373;-70
2022/11/06 11:51:43;;;;;;;0.20;0.00;;;23.10;99.90;;;;;;25528335;23;20384;-72
2022/11/06 12:01:49;;;;;;;0.20;0.00;;;23.30;99.90;;;;;;25524355;23;20369;-71
2022/11/06 12:11:55;;;;;;;0.20;0.00;;;24.10;99.90;;;;;;25526233;23;20377;-71
2022/11/06 12:22:06;;;;;;;0.20;0.00;;;23.70;99.90;;;;;;25502311;23;20465;-71
2022/11/06 12:32:22;;;;;;;0.20;0.00;;;23.30;99.90;;;;;;25507052;23;20370;-74
2022/11/06 12:42:32;;;;;;;0.20;0.00;;;22.60;99.90;;;;;;25506822;23;20412;-69
2022/11/06 12:52:48;;;;;;;0.20;0.00;;;23.20;99.90;;;;;;25533651;23;20361;-71
2022/11/06 13:03:14;;;;;;;0.20;0.00;;;22.20;99.90;;;;;;25527330;23;20454;-71
2022/11/06 13:13:30;;;;;;;0.20;0.00;;;21.20;99.90;;;;;;25530972;23;20365;-72
2022/11/06 13:23:40;;;;;;;0.20;0.00;;;21.00;99.90;;;;;;25528695;23;20365;-70
2022/11/06 13:33:48;;;;;;;0.20;0.10;;;21.50;99.90;;;;;;25502752;23;20374;-72
2022/11/06 13:43:59;;;;;;;0.20;0.10;;;21.70;99.90;;;;;;25531754;23;20431;-72
2022/11/06 13:54:10;;;;;;;0.20;0.00;;;22.20;99.90;;;;;;25506726;23;20370;-70
2022/11/06 14:04:42;;;;;;;0.20;0.00;;;23.60;99.90;;;;;;25505691;23;20381;-73
2022/11/06 14:14:46;;;;;;;0.20;0.10;;;25.30;99.90;;;;;;25528831;23;20369;-72
2022/11/06 14:24:52;;;;;;;0.20;0.10;;;26.10;99.90;;;;;;25527870;23;20373;-72
2022/11/06 14:35:51;;;;;;;0.20;0.00;;;26.70;99.90;;;;;;25530935;23;20393;-74
2022/11/06 14:45:58;;;;;;;0.20;0.00;;;26.20;99.90;;;;;;25501157;23;20377;-75
2022/11/06 14:56:04;;;;;;;0.20;0.00;;;25.50;99.90;;;;;;25529667;23;20385;-73
2022/11/06 15:06:36;;;;;;;0.20;0.00;;;25.30;99.90;;;;;;25529038;23;20444;-72
2022/11/06 15:16:43;;;;;;;0.20;0.10;;;23.40;99.90;;;;;;25501157;23;20403;-71
2022/11/06 15:26:53;;;;;;;0.20;0.00;;;21.70;99.90;;;;;;25528380;23;20377;-70
2022/11/06 15:37:21;;;;;;;0.20;0.00;;;21.30;99.90;;;;;;25528070;23;20368;-72
2022/11/06 15:47:30;;;;;;;0.20;0.00;;;21.60;99.90;;;;;;25503897;23;20392;-72
2022/11/06 15:57:34;;;;;;;0.20;0.00;;;20.80;99.90;;;;;;25510214;23;20381;-71
2022/11/06 16:07:40;;;;;;;0.20;0.00;;;20.30;99.90;;;;;;25537928;23;20377;-73
2022/11/06 16:17:44;;;;;;;0.20;0.00;;;19.80;99.90;;;;;;25509176;23;20392;-71
2022/11/06 16:27:50;;;;;;;0.20;0.10;;;19.80;99.90;;;;;;25536837;23;20376;-71
2022/11/06 16:37:57;;;;;;;0.20;0.10;;;19.60;99.90;;;;;;25508054;23;20381;-74
2022/11/06 16:48:33;;;;;;;0.20;0.00;;;19.50;99.90;;;;;;25531723;23;20411;-71
2022/11/06 16:58:46;;;;;;;0.20;0.00;;;18.40;99.90;;;;;;25504276;23;20380;-69
2022/11/06 17:09:08;;;;;;;0.20;0.10;;;17.80;99.90;;;;;;25530364;23;20408;-73
2022/11/06 17:19:12;;;;;;;0.20;0.00;;;17.20;99.90;;;;;;25506545;23;20400;-72
2022/11/06 17:29:18;;;;;;;0.20;0.10;;;17.00;99.90;;;;;;25507016;23;20819;-71
2022/11/06 17:39:25;;;;;;;0.20;0.10;;;16.60;99.90;;;;;;25506891;23;20370;-73
2022/11/06 17:49:30;;;;;;;0.20;0.10;;;16.40;99.90;;;;;;25533533;23;20385;-73
2022/11/06 17:59:34;;;;;;;0.20;0.10;;;16.20;99.90;;;;;;25499880;23;20436;-73
2022/11/06 18:09:39;;;;;;;0.20;0.10;;;16.10;99.90;;;;;;25503665;23;20381;-75
2022/11/06 18:19:43;;;;;;;0.20;0.10;;;15.90;99.90;;;;;;25531215;23;20369;-74
2022/11/06 18:29:48;;;;;;;0.20;0.10;;;15.80;99.90;;;;;;25528036;23;20496;-74
2022/11/06 18:39:52;;;;;;;0.20;0.00;;;15.60;99.90;;;;;;25526339;23;20377;-73
2022/11/06 18:49:57;;;;;;;0.20;0.10;;;15.50;99.90;;;;;;25527285;23;20390;-72
2022/11/06 19:00:07;;;;;;;0.20;0.10;;;15.40;99.90;;;;;;25501116;23;20384;-74
2022/11/06 19:10:13;;;;;;;0.20;0.10;;;15.40;99.90;;;;;;25499767;23;20377;-73
2022/11/06 19:20:17;;;;;;;0.20;0.00;;;15.50;99.90;;;;;;25525231;23;20384;-74
2022/11/06 19:30:22;;;;;;;0.20;0.10;;;15.30;99.90;;;;;;25525172;23;20416;-73
2022/11/06 19:40:27;;;;;;;0.20;0.10;;;15.30;99.90;;;;;;25500660;23;20381;-74
2022/11/06 19:50:32;;;;;;;0.20;0.10;;;15.40;99.90;;;;;;25528855;23;20369;-74
2022/11/06 20:00:56;;;;;;;0.20;0.10;;;15.40;99.90;;;;;;25527043;23;20408;-73
2022/11/06 20:11:04;;;;;;;0.20;0.10;;;15.80;99.90;;;;;;25523499;23;20373;-73
2022/11/06 20:21:10;;;;;;;0.20;0.10;;;16.70;99.90;;;;;;25500378;23;20925;-73
2022/11/06 20:31:18;;;;;;;0.20;0.10;;;16.90;99.90;;;;;;25527500;23;20485;-73
2022/11/06 20:41:23;;;;;;;0.20;0.10;;;16.80;99.90;;;;;;25528690;23;20385;-73
2022/11/06 20:51:31;;;;;;;0.20;0.10;;;16.80;99.90;;;;;;25534938;23;20384;-73
2022/11/06 21:01:55;;;;;;;0.20;0.00;;;16.60;99.90;;;;;;25482207;23;20473;-73
2022/11/06 21:12:01;;;;;;;0.20;0.10;;;16.40;99.90;;;;;;25532602;23;20436;-73
2022/11/06 21:22:05;;;;;;;0.20;0.00;;;15.60;99.90;;;;;;25532904;23;20369;-73
2022/11/06 21:32:10;;;;;;;0.20;0.10;;;15.00;99.90;;;;;;25533656;23;20366;-71
2022/11/06 21:42:14;;;;;;;0.20;0.10;;;14.80;99.90;;;;;;25531810;23;20376;-72
2022/11/06 22:02:46;;;;;;;0.20;0.10;;;14.50;99.90;;;;;;25447437;23;20369;-73
2022/11/06 22:12:52;;;;;;;0.20;0.10;;;14.40;99.90;;;;;;25521233;23;20405;-73
2022/11/06 22:22:56;;;;;;;0.20;0.10;;;14.00;99.90;;;;;;25479123;23;20461;-73
2022/11/06 22:33:01;;;;;;;0.20;0.00;;;14.20;99.90;;;;;;25503335;23;20389;-74
2022/11/06 22:43:10;;;;;;;0.20;0.10;;;13.90;99.90;;;;;;25532454;23;20373;-74
2022/11/06 22:53:16;;;;;;;0.20;0.10;;;13.80;99.90;;;;;;25532838;23;20377;-74
2022/11/06 23:03:21;;;;;;;0.20;0.00;;;13.80;99.90;;;;;;25532486;23;20391;-73
2022/11/06 23:13:27;;;;;;;0.20;0.10;;;13.80;99.90;;;;;;25535815;23;20448;-72
2022/11/06 23:23:31;;;;;;;0.20;0.00;;;14.00;99.90;;;;;;25534831;23;20369;-73
2022/11/06 23:33:36;;;;;;;0.20;0.00;;;13.90;99.90;;;;;;25535210;23;20381;-73
2022/11/06 23:43:40;;;;;;;0.20;0.00;;;14.00;99.90;;;;;;25535127;23;20376;-73
2022/11/06 23:53:45;;;;;;;0.20;0.10;;;14.00;99.90;;;;;;25507537;23;20361;-73
